Terminal Aerodrome Forecast
Issued by NWS Wilmington, NC

Home | Current Version | Previous Version | Text Only | Print | Product List | Glossary On
Versions: 1 2 3 4 5 6 7 8 9 10 11 12 13 14
000
FTUS42 KILM 280536
TAFFLO
TAF
KFLO 280536Z 2806/2906 VRB03KT P6SM SCT050
      TEMPO 2809/2812 4SM BR SCT008 BKN015
     FM281200 06006KT P6SM SCT035
     FM281800 09006KT P6SM BKN050
     FM290000 VRB03KT P6SM BKN120=

USA.gov is the U.S. government's official web portal to all federal, state and local government web resources and services.